sensor_id;sensor_type;location;lat;lon;timestamp;temperature;humidity
34279;DHT22;20538;51.528;9.942;2023-06-05T00:02:15;11.60;99.90
34279;DHT22;20538;51.528;9.942;2023-06-05T00:04:41;11.50;99.90
34279;DHT22;20538;51.528;9.942;2023-06-05T00:07:08;11.40;99.90
34279;DHT22;20538;51.528;9.942;2023-06-05T00:09:34;11.40;99.90
34279;DHT22;20538;51.528;9.942;2023-06-05T00:12:00;11.30;99.90
34279;DHT22;20538;51.528;9.942;2023-06-05T00:14:25;11.30;99.90
34279;DHT22;20538;51.528;9.942;2023-06-05T00:16:51;11.30;99.90
34279;DHT22;20538;51.528;9.942;2023-06-05T00:19:17;11.40;99.90
34279;DHT22;20538;51.528;9.942;2023-06-05T00:21:43;11.40;99.90
34279;DHT22;20538;51.528;9.942;2023-06-05T00:24:08;11.40;99.90
34279;DHT22;20538;51.528;9.942;2023-06-05T00:26:34;11.30;99.90
34279;DHT22;20538;51.528;9.942;2023-06-05T00:29:00;11.30;99.90
34279;DHT22;20538;51.528;9.942;2023-06-05T00:31:26;11.40;99.90
34279;DHT22;20538;51.528;9.942;2023-06-05T00:33:51;11.40;99.90
34279;DHT22;20538;51.528;9.942;2023-06-05T00:36:17;11.20;99.90
34279;DHT22;20538;51.528;9.942;2023-06-05T00:38:48;11.20;99.90
34279;DHT22;20538;51.528;9.942;2023-06-05T00:41:14;11.20;99.90
34279;DHT22;20538;51.528;9.942;2023-06-05T00:43:40;11.10;99.90
34279;DHT22;20538;51.528;9.942;2023-06-05T00:46:09;11.10;99.90
34279;DHT22;20538;51.528;9.942;2023-06-05T00:48:36;11.00;99.90
34279;DHT22;20538;51.528;9.942;2023-06-05T00:51:02;11.00;99.90
34279;DHT22;20538;51.528;9.942;2023-06-05T00:53:30;11.00;99.90
34279;DHT22;20538;51.528;9.942;2023-06-05T00:55:58;11.00;99.90
34279;DHT22;20538;51.528;9.942;2023-06-05T00:58:25;11.10;99.90
34279;DHT22;20538;51.528;9.942;2023-06-05T01:00:50;11.10;99.90
34279;DHT22;20538;51.528;9.942;2023-06-05T01:03:16;11.10;99.90
34279;DHT22;20538;51.528;9.942;2023-06-05T01:05:43;11.00;99.90
34279;DHT22;20538;51.528;9.942;2023-06-05T01:08:09;10.90;99.90
34279;DHT22;20538;51.528;9.942;2023-06-05T01:10:43;10.80;99.90
34279;DHT22;20538;51.528;9.942;2023-06-05T01:13:19;10.70;99.90
34279;DHT22;20538;51.528;9.942;2023-06-05T01:15:46;10.70;99.90
34279;DHT22;20538;51.528;9.942;2023-06-05T01:18:16;10.50;99.90
34279;DHT22;20538;51.528;9.942;2023-06-05T01:20:44;10.40;99.90
34279;DHT22;20538;51.528;9.942;2023-06-05T01:23:10;10.40;99.90
34279;DHT22;20538;51.528;9.942;2023-06-05T01:25:36;10.30;99.90
34279;DHT22;20538;51.528;9.942;2023-06-05T01:28:17;10.30;99.90
34279;DHT22;20538;51.528;9.942;2023-06-05T01:30:48;10.30;99.90
34279;DHT22;20538;51.528;9.942;2023-06-05T01:33:40;10.30;99.90
34279;DHT22;20538;51.528;9.942;2023-06-05T01:36:11;10.20;99.90
34279;DHT22;20538;51.528;9.942;2023-06-05T01:38:40;10.10;99.90
34279;DHT22;20538;51.528;9.942;2023-06-05T01:41:07;10.00;99.90
34279;DHT22;20538;51.528;9.942;2023-06-05T01:43:34;9.80;99.90
34279;DHT22;20538;51.528;9.942;2023-06-05T01:46:00;9.80;99.90
34279;DHT22;20538;51.528;9.942;2023-06-05T01:48:27;9.80;99.90
34279;DHT22;20538;51.528;9.942;2023-06-05T01:50:57;9.90;99.90
34279;DHT22;20538;51.528;9.942;2023-06-05T01:53:24;9.80;99.90
34279;DHT22;20538;51.528;9.942;2023-06-05T01:55:50;9.70;99.90
34279;DHT22;20538;51.528;9.942;2023-06-05T01:58:20;9.70;99.90
34279;DHT22;20538;51.528;9.942;2023-06-05T02:00:46;9.70;99.90
34279;DHT22;20538;51.528;9.942;2023-06-05T02:03:13;9.70;99.90
34279;DHT22;20538;51.528;9.942;2023-06-05T02:05:41;9.70;99.90
34279;DHT22;20538;51.528;9.942;2023-06-05T02:08:07;9.60;99.90
34279;DHT22;20538;51.528;9.942;2023-06-05T02:10:35;9.60;99.90
34279;DHT22;20538;51.528;9.942;2023-06-05T02:13:00;9.60;99.90
34279;DHT22;20538;51.528;9.942;2023-06-05T02:15:26;9.50;99.90
34279;DHT22;20538;51.528;9.942;2023-06-05T02:17:54;9.50;99.90
34279;DHT22;20538;51.528;9.942;2023-06-05T02:20:23;9.50;99.90
34279;DHT22;20538;51.528;9.942;2023-06-05T02:22:49;9.30;99.90
34279;DHT22;20538;51.528;9.942;2023-06-05T02:25:21;9.20;99.90
34279;DHT22;20538;51.528;9.942;2023-06-05T02:27:47;9.20;99.90
34279;DHT22;20538;51.528;9.942;2023-06-05T02:30:13;9.20;99.90
34279;DHT22;20538;51.528;9.942;2023-06-05T02:32:39;9.20;99.90
34279;DHT22;20538;51.528;9.942;2023-06-05T02:35:12;9.30;99.90
34279;DHT22;20538;51.528;9.942;2023-06-05T02:37:38;9.30;99.90
34279;DHT22;20538;51.528;9.942;2023-06-05T02:40:09;9.20;99.90
34279;DHT22;20538;51.528;9.942;2023-06-05T02:42:36;9.10;99.90
34279;DHT22;20538;51.528;9.942;2023-06-05T02:45:02;9.10;99.90
34279;DHT22;20538;51.528;9.942;2023-06-05T02:47:28;9.10;99.90
34279;DHT22;20538;51.528;9.942;2023-06-05T02:49:54;9.10;99.90
34279;DHT22;20538;51.528;9.942;2023-06-05T02:52:19;9.00;99.90
34279;DHT22;20538;51.528;9.942;2023-06-05T02:54:46;9.10;99.90
34279;DHT22;20538;51.528;9.942;2023-06-05T02:57:12;9.10;99.90
34279;DHT22;20538;51.528;9.942;2023-06-05T02:59:40;9.10;99.90
34279;DHT22;20538;51.528;9.942;2023-06-05T03:02:06;9.10;99.90
34279;DHT22;20538;51.528;9.942;2023-06-05T03:04:32;9.10;99.90
34279;DHT22;20538;51.528;9.942;2023-06-05T03:06:58;9.10;99.90
34279;DHT22;20538;51.528;9.942;2023-06-05T03:09:28;9.10;99.90
34279;DHT22;20538;51.528;9.942;2023-06-05T03:11:54;9.10;99.90
34279;DHT22;20538;51.528;9.942;2023-06-05T03:14:19;9.10;99.90
34279;DHT22;20538;51.528;9.942;2023-06-05T03:16:45;9.20;99.90
34279;DHT22;20538;51.528;9.942;2023-06-05T03:19:11;9.10;99.90
34279;DHT22;20538;51.528;9.942;2023-06-05T03:21:40;9.00;99.90
34279;DHT22;20538;51.528;9.942;2023-06-05T03:24:11;9.00;99.90
34279;DHT22;20538;51.528;9.942;2023-06-05T03:26:41;9.00;99.90
34279;DHT22;20538;51.528;9.942;2023-06-05T03:29:10;8.90;99.90
34279;DHT22;20538;51.528;9.942;2023-06-05T03:31:36;8.90;99.90
34279;DHT22;20538;51.528;9.942;2023-06-05T03:34:02;8.90;99.90
34279;DHT22;20538;51.528;9.942;2023-06-05T03:36:29;8.90;99.90
34279;DHT22;20538;51.528;9.942;2023-06-05T03:38:56;8.80;99.90
34279;DHT22;20538;51.528;9.942;2023-06-05T03:41:25;8.80;99.90
34279;DHT22;20538;51.528;9.942;2023-06-05T03:43:51;8.70;99.90
34279;DHT22;20538;51.528;9.942;2023-06-05T03:46:17;8.70;99.90
34279;DHT22;20538;51.528;9.942;2023-06-05T03:48:45;8.70;99.90
34279;DHT22;20538;51.528;9.942;2023-06-05T03:51:11;8.80;99.90
34279;DHT22;20538;51.528;9.942;2023-06-05T03:53:38;8.80;99.90
34279;DHT22;20538;51.528;9.942;2023-06-05T03:56:08;8.80;99.90
34279;DHT22;20538;51.528;9.942;2023-06-05T03:58:34;9.00;99.90
34279;DHT22;20538;51.528;9.942;2023-06-05T04:01:00;9.20;99.90
34279;DHT22;20538;51.528;9.942;2023-06-05T04:03:25;9.20;99.90
34279;DHT22;20538;51.528;9.942;2023-06-05T04:05:53;9.30;99.90
34279;DHT22;20538;51.528;9.942;2023-06-05T04:08:18;9.40;99.90
34279;DHT22;20538;51.528;9.942;2023-06-05T04:10:44;9.40;99.90
34279;DHT22;20538;51.528;9.942;2023-06-05T04:13:09;9.40;99.90
34279;DHT22;20538;51.528;9.942;2023-06-05T04:15:35;9.40;99.90
34279;DHT22;20538;51.528;9.942;2023-06-05T04:18:02;9.40;99.90
34279;DHT22;20538;51.528;9.942;2023-06-05T04:20:28;9.40;99.90
34279;DHT22;20538;51.528;9.942;2023-06-05T04:22:53;9.30;99.90
34279;DHT22;20538;51.528;9.942;2023-06-05T04:25:19;9.40;99.90
34279;DHT22;20538;51.528;9.942;2023-06-05T04:27:46;9.40;99.90
34279;DHT22;20538;51.528;9.942;2023-06-05T04:30:14;9.60;99.90
34279;DHT22;20538;51.528;9.942;2023-06-05T04:32:42;9.70;99.90
34279;DHT22;20538;51.528;9.942;2023-06-05T04:35:09;10.50;99.90
34279;DHT22;20538;51.528;9.942;2023-06-05T04:37:36;11.70;99.90
34279;DHT22;20538;51.528;9.942;2023-06-05T04:40:03;12.60;99.90
34279;DHT22;20538;51.528;9.942;2023-06-05T04:42:33;13.40;99.90
34279;DHT22;20538;51.528;9.942;2023-06-05T04:45:01;13.90;99.90
34279;DHT22;20538;51.528;9.942;2023-06-05T04:47:27;14.20;99.90
34279;DHT22;20538;51.528;9.942;2023-06-05T04:49:53;14.50;99.90
34279;DHT22;20538;51.528;9.942;2023-06-05T04:52:20;14.80;99.90
34279;DHT22;20538;51.528;9.942;2023-06-05T04:54:47;15.20;99.90
34279;DHT22;20538;51.528;9.942;2023-06-05T04:57:12;15.60;99.90
34279;DHT22;20538;51.528;9.942;2023-06-05T04:59:38;15.90;99.90
34279;DHT22;20538;51.528;9.942;2023-06-05T05:02:04;15.80;99.90
34279;DHT22;20538;51.528;9.942;2023-06-05T05:04:29;16.00;99.90
34279;DHT22;20538;51.528;9.942;2023-06-05T05:06:56;16.20;99.90
34279;DHT22;20538;51.528;9.942;2023-06-05T05:09:29;16.10;99.90
34279;DHT22;20538;51.528;9.942;2023-06-05T05:11:59;16.70;99.90
34279;DHT22;20538;51.528;9.942;2023-06-05T05:14:26;16.80;99.90
34279;DHT22;20538;51.528;9.942;2023-06-05T05:16:53;16.80;99.90
34279;DHT22;20538;51.528;9.942;2023-06-05T05:19:19;16.70;99.90
34279;DHT22;20538;51.528;9.942;2023-06-05T05:21:45;17.10;99.90
34279;DHT22;20538;51.528;9.942;2023-06-05T05:24:12;17.10;99.90
34279;DHT22;20538;51.528;9.942;2023-06-05T05:26:38;17.10;99.90
34279;DHT22;20538;51.528;9.942;2023-06-05T05:29:05;17.40;99.90
34279;DHT22;20538;51.528;9.942;2023-06-05T05:31:31;17.60;99.90
34279;DHT22;20538;51.528;9.942;2023-06-05T05:33:57;17.60;99.90
34279;DHT22;20538;51.528;9.942;2023-06-05T05:36:24;17.40;99.90
34279;DHT22;20538;51.528;9.942;2023-06-05T05:38:50;17.50;99.90
34279;DHT22;20538;51.528;9.942;2023-06-05T05:41:16;17.40;99.90
34279;DHT22;20538;51.528;9.942;2023-06-05T05:43:42;17.20;99.90
34279;DHT22;20538;51.528;9.942;2023-06-05T05:46:08;17.40;99.90
34279;DHT22;20538;51.528;9.942;2023-06-05T05:48:37;17.70;99.90
34279;DHT22;20538;51.528;9.942;2023-06-05T05:51:05;18.00;99.90
34279;DHT22;20538;51.528;9.942;2023-06-05T05:53:30;17.80;99.90
34279;DHT22;20538;51.528;9.942;2023-06-05T05:55:56;17.90;99.90
34279;DHT22;20538;51.528;9.942;2023-06-05T05:58:22;17.80;99.90
34279;DHT22;20538;51.528;9.942;2023-06-05T06:00:47;17.90;99.90
34279;DHT22;20538;51.528;9.942;2023-06-05T06:03:13;18.00;99.90
34279;DHT22;20538;51.528;9.942;2023-06-05T06:05:41;18.10;99.90
34279;DHT22;20538;51.528;9.942;2023-06-05T06:08:07;18.10;99.90
34279;DHT22;20538;51.528;9.942;2023-06-05T06:10:32;18.50;99.90
34279;DHT22;20538;51.528;9.942;2023-06-05T06:12:58;18.50;99.90
34279;DHT22;20538;51.528;9.942;2023-06-05T06:15:24;18.50;99.90
34279;DHT22;20538;51.528;9.942;2023-06-05T06:17:50;18.30;99.90
34279;DHT22;20538;51.528;9.942;2023-06-05T06:20:16;18.20;99.90
34279;DHT22;20538;51.528;9.942;2023-06-05T06:22:42;18.20;99.90
34279;DHT22;20538;51.528;9.942;2023-06-05T06:25:09;18.20;99.90
34279;DHT22;20538;51.528;9.942;2023-06-05T06:27:36;17.80;99.90
34279;DHT22;20538;51.528;9.942;2023-06-05T06:30:03;17.40;99.90
34279;DHT22;20538;51.528;9.942;2023-06-05T06:32:29;17.00;99.90
34279;DHT22;20538;51.528;9.942;2023-06-05T06:34:58;16.90;99.90
34279;DHT22;20538;51.528;9.942;2023-06-05T06:37:25;16.90;99.90
34279;DHT22;20538;51.528;9.942;2023-06-05T06:39:51;16.90;99.90
34279;DHT22;20538;51.528;9.942;2023-06-05T06:42:16;16.90;99.90
34279;DHT22;20538;51.528;9.942;2023-06-05T06:44:42;16.90;99.90
34279;DHT22;20538;51.528;9.942;2023-06-05T06:47:08;16.60;99.90
34279;DHT22;20538;51.528;9.942;2023-06-05T06:49:34;16.60;99.90
34279;DHT22;20538;51.528;9.942;2023-06-05T06:52:01;16.50;99.90
34279;DHT22;20538;51.528;9.942;2023-06-05T06:54:27;15.90;99.90
34279;DHT22;20538;51.528;9.942;2023-06-05T06:56:55;16.20;99.90
34279;DHT22;20538;51.528;9.942;2023-06-05T06:59:21;16.60;99.90
34279;DHT22;20538;51.528;9.942;2023-06-05T07:04:33;16.70;99.90
34279;DHT22;20538;51.528;9.942;2023-06-05T07:06:59;16.90;99.90
34279;DHT22;20538;51.528;9.942;2023-06-05T07:09:25;17.00;99.90
34279;DHT22;20538;51.528;9.942;2023-06-05T07:11:50;17.00;99.90
34279;DHT22;20538;51.528;9.942;2023-06-05T07:14:16;16.50;99.90
34279;DHT22;20538;51.528;9.942;2023-06-05T07:16:42;16.40;99.90
34279;DHT22;20538;51.528;9.942;2023-06-05T07:19:07;16.90;99.90
34279;DHT22;20538;51.528;9.942;2023-06-05T07:21:34;17.20;99.90
34279;DHT22;20538;51.528;9.942;2023-06-05T07:24:04;17.40;99.90
34279;DHT22;20538;51.528;9.942;2023-06-05T07:26:29;16.80;99.90
34279;DHT22;20538;51.528;9.942;2023-06-05T07:28:55;16.20;99.90
34279;DHT22;20538;51.528;9.942;2023-06-05T07:31:21;16.60;99.90
34279;DHT22;20538;51.528;9.942;2023-06-05T07:33:47;16.80;99.90
34279;DHT22;20538;51.528;9.942;2023-06-05T07:36:13;17.10;99.90
34279;DHT22;20538;51.528;9.942;2023-06-05T07:38:40;17.50;99.90
34279;DHT22;20538;51.528;9.942;2023-06-05T07:41:08;17.70;99.90
34279;DHT22;20538;51.528;9.942;2023-06-05T07:43:37;17.90;99.90
34279;DHT22;20538;51.528;9.942;2023-06-05T07:46:05;18.00;99.90
34279;DHT22;20538;51.528;9.942;2023-06-05T07:48:31;17.50;99.90
34279;DHT22;20538;51.528;9.942;2023-06-05T07:50:57;17.40;99.90
34279;DHT22;20538;51.528;9.942;2023-06-05T07:53:22;17.40;99.90
34279;DHT22;20538;51.528;9.942;2023-06-05T07:55:48;17.90;99.90
34279;DHT22;20538;51.528;9.942;2023-06-05T07:58:14;18.20;99.90
34279;DHT22;20538;51.528;9.942;2023-06-05T08:00:41;18.30;99.90
34279;DHT22;20538;51.528;9.942;2023-06-05T08:03:14;18.50;99.90
34279;DHT22;20538;51.528;9.942;2023-06-05T08:05:48;18.00;99.90
34279;DHT22;20538;51.528;9.942;2023-06-05T08:08:15;18.40;99.90
34279;DHT22;20538;51.528;9.942;2023-06-05T08:10:41;18.20;99.90
34279;DHT22;20538;51.528;9.942;2023-06-05T08:13:08;18.40;99.90
34279;DHT22;20538;51.528;9.942;2023-06-05T08:15:34;18.50;99.90
34279;DHT22;20538;51.528;9.942;2023-06-05T08:18:00;18.70;99.90
34279;DHT22;20538;51.528;9.942;2023-06-05T08:20:26;19.00;99.90
34279;DHT22;20538;51.528;9.942;2023-06-05T08:22:52;18.90;99.90
34279;DHT22;20538;51.528;9.942;2023-06-05T08:25:18;19.10;99.90
34279;DHT22;20538;51.528;9.942;2023-06-05T08:27:43;19.30;99.90
34279;DHT22;20538;51.528;9.942;2023-06-05T08:30:10;19.30;99.90
34279;DHT22;20538;51.528;9.942;2023-06-05T08:32:36;18.90;99.90
34279;DHT22;20538;51.528;9.942;2023-06-05T08:35:02;19.20;99.90
34279;DHT22;20538;51.528;9.942;2023-06-05T08:37:28;19.30;99.90
34279;DHT22;20538;51.528;9.942;2023-06-05T08:39:54;19.20;99.90
34279;DHT22;20538;51.528;9.942;2023-06-05T08:42:28;19.30;99.90
34279;DHT22;20538;51.528;9.942;2023-06-05T08:44:54;19.60;99.90
34279;DHT22;20538;51.528;9.942;2023-06-05T08:47:22;19.60;99.90
34279;DHT22;20538;51.528;9.942;2023-06-05T08:49:52;20.00;99.90
34279;DHT22;20538;51.528;9.942;2023-06-05T08:52:22;20.00;99.90
34279;DHT22;20538;51.528;9.942;2023-06-05T08:54:48;20.20;99.90
34279;DHT22;20538;51.528;9.942;2023-06-05T08:57:14;20.00;99.90
34279;DHT22;20538;51.528;9.942;2023-06-05T08:59:41;20.40;99.90
34279;DHT22;20538;51.528;9.942;2023-06-05T09:02:09;20.50;99.90
34279;DHT22;20538;51.528;9.942;2023-06-05T09:04:35;20.10;99.90
34279;DHT22;20538;51.528;9.942;2023-06-05T09:07:01;20.30;99.90
34279;DHT22;20538;51.528;9.942;2023-06-05T09:09:27;20.70;99.90
34279;DHT22;20538;51.528;9.942;2023-06-05T09:12:04;21.10;99.90
34279;DHT22;20538;51.528;9.942;2023-06-05T09:14:30;21.30;99.90
34279;DHT22;20538;51.528;9.942;2023-06-05T09:16:57;21.50;99.90
34279;DHT22;20538;51.528;9.942;2023-06-05T09:19:23;21.60;99.90
34279;DHT22;20538;51.528;9.942;2023-06-05T09:21:56;21.40;99.90
34279;DHT22;20538;51.528;9.942;2023-06-05T09:24:22;21.30;99.90
34279;DHT22;20538;51.528;9.942;2023-06-05T09:26:59;21.50;99.90
34279;DHT22;20538;51.528;9.942;2023-06-05T09:29:28;21.30;99.90
34279;DHT22;20538;51.528;9.942;2023-06-05T09:31:56;21.60;99.90
34279;DHT22;20538;51.528;9.942;2023-06-05T09:34:30;22.00;97.70
34279;DHT22;20538;51.528;9.942;2023-06-05T09:36:58;22.10;96.60
34279;DHT22;20538;51.528;9.942;2023-06-05T09:39:26;22.10;93.30
34279;DHT22;20538;51.528;9.942;2023-06-05T09:41:54;22.10;91.10
34279;DHT22;20538;51.528;9.942;2023-06-05T09:44:22;22.20;89.80
34279;DHT22;20538;51.528;9.942;2023-06-05T09:47:02;22.10;83.40
34279;DHT22;20538;51.528;9.942;2023-06-05T09:49:32;22.20;88.20
34279;DHT22;20538;51.528;9.942;2023-06-05T09:52:12;22.30;86.80
34279;DHT22;20538;51.528;9.942;2023-06-05T09:54:40;22.50;89.90
34279;DHT22;20538;51.528;9.942;2023-06-05T09:57:08;22.50;89.20
34279;DHT22;20538;51.528;9.942;2023-06-05T09:59:50;22.40;87.50
34279;DHT22;20538;51.528;9.942;2023-06-05T10:02:17;22.50;90.00
34279;DHT22;20538;51.528;9.942;2023-06-05T10:04:54;22.70;86.60
34279;DHT22;20538;51.528;9.942;2023-06-05T10:07:22;22.80;87.10
34279;DHT22;20538;51.528;9.942;2023-06-05T10:09:52;22.80;88.20
34279;DHT22;20538;51.528;9.942;2023-06-05T10:12:19;22.80;87.90
34279;DHT22;20538;51.528;9.942;2023-06-05T10:14:45;22.90;86.60
34279;DHT22;20538;51.528;9.942;2023-06-05T10:17:12;22.90;85.30
34279;DHT22;20538;51.528;9.942;2023-06-05T10:19:42;22.70;85.30
34279;DHT22;20538;51.528;9.942;2023-06-05T10:22:10;22.80;87.10
34279;DHT22;20538;51.528;9.942;2023-06-05T10:24:41;22.90;88.20
34279;DHT22;20538;51.528;9.942;2023-06-05T10:35:46;22.80;86.80
34279;DHT22;20538;51.528;9.942;2023-06-05T10:38:27;23.10;86.40
34279;DHT22;20538;51.528;9.942;2023-06-05T10:40:58;23.20;88.30
34279;DHT22;20538;51.528;9.942;2023-06-05T10:46:27;22.80;84.50
34279;DHT22;20538;51.528;9.942;2023-06-05T10:49:07;23.20;85.70
34279;DHT22;20538;51.528;9.942;2023-06-05T10:51:40;23.10;82.20
34279;DHT22;20538;51.528;9.942;2023-06-05T10:57:02;23.00;81.80
34279;DHT22;20538;51.528;9.942;2023-06-05T10:59:30;22.90;81.30
34279;DHT22;20538;51.528;9.942;2023-06-05T11:15:09;22.70;80.80
34279;DHT22;20538;51.528;9.942;2023-06-05T11:17:42;23.10;80.90
34279;DHT22;20538;51.528;9.942;2023-06-05T11:28:03;23.50;79.50
34279;DHT22;20538;51.528;9.942;2023-06-05T11:30:43;23.30;78.40
34279;DHT22;20538;51.528;9.942;2023-06-05T11:33:10;23.20;78.00
34279;DHT22;20538;51.528;9.942;2023-06-05T11:35:41;23.00;78.10
34279;DHT22;20538;51.528;9.942;2023-06-05T11:40:40;23.00;78.50
34279;DHT22;20538;51.528;9.942;2023-06-05T11:43:08;23.00;77.10
34279;DHT22;20538;51.528;9.942;2023-06-05T11:45:35;23.20;80.10
34279;DHT22;20538;51.528;9.942;2023-06-05T11:50:31;23.80;75.90
34279;DHT22;20538;51.528;9.942;2023-06-05T11:53:10;23.20;76.40
34279;DHT22;20538;51.528;9.942;2023-06-05T11:55:40;23.60;76.00
34279;DHT22;20538;51.528;9.942;2023-06-05T11:58:24;23.20;73.50
34279;DHT22;20538;51.528;9.942;2023-06-05T12:00:50;23.20;74.50
34279;DHT22;20538;51.528;9.942;2023-06-05T12:03:20;23.60;76.10
34279;DHT22;20538;51.528;9.942;2023-06-05T12:05:47;24.00;74.70
34279;DHT22;20538;51.528;9.942;2023-06-05T12:08:29;23.90;75.10
34279;DHT22;20538;51.528;9.942;2023-06-05T12:10:57;24.30;77.60
34279;DHT22;20538;51.528;9.942;2023-06-05T12:13:44;24.20;76.80
34279;DHT22;20538;51.528;9.942;2023-06-05T12:16:10;23.90;73.20
34279;DHT22;20538;51.528;9.942;2023-06-05T12:18:36;24.10;77.00
34279;DHT22;20538;51.528;9.942;2023-06-05T12:21:05;24.40;74.90
34279;DHT22;20538;51.528;9.942;2023-06-05T12:23:32;24.30;74.50
34279;DHT22;20538;51.528;9.942;2023-06-05T12:26:03;24.40;75.90
34279;DHT22;20538;51.528;9.942;2023-06-05T12:28:30;24.50;75.80
34279;DHT22;20538;51.528;9.942;2023-06-05T12:30:57;24.60;73.60
34279;DHT22;20538;51.528;9.942;2023-06-05T12:33:24;24.50;72.90
34279;DHT22;20538;51.528;9.942;2023-06-05T12:36:10;23.90;70.90
34279;DHT22;20538;51.528;9.942;2023-06-05T12:38:42;23.90;73.40
34279;DHT22;20538;51.528;9.942;2023-06-05T12:41:11;24.10;74.20
34279;DHT22;20538;51.528;9.942;2023-06-05T12:43:37;24.40;72.40
34279;DHT22;20538;51.528;9.942;2023-06-05T12:46:05;24.30;71.90
34279;DHT22;20538;51.528;9.942;2023-06-05T12:48:31;24.30;73.10
34279;DHT22;20538;51.528;9.942;2023-06-05T12:50:57;24.50;73.40
34279;DHT22;20538;51.528;9.942;2023-06-05T12:53:23;24.20;71.70
34279;DHT22;20538;51.528;9.942;2023-06-05T12:55:48;24.30;73.90
34279;DHT22;20538;51.528;9.942;2023-06-05T12:58:14;24.50;75.60
34279;DHT22;20538;51.528;9.942;2023-06-05T13:00:40;24.60;74.30
34279;DHT22;20538;51.528;9.942;2023-06-05T13:03:05;24.60;73.10
34279;DHT22;20538;51.528;9.942;2023-06-05T13:05:31;24.70;73.00
34279;DHT22;20538;51.528;9.942;2023-06-05T13:07:58;24.90;73.20
34279;DHT22;20538;51.528;9.942;2023-06-05T13:10:24;24.70;71.50
34279;DHT22;20538;51.528;9.942;2023-06-05T13:12:50;24.80;71.80
34279;DHT22;20538;51.528;9.942;2023-06-05T13:15:16;24.70;70.00
34279;DHT22;20538;51.528;9.942;2023-06-05T13:17:42;24.50;70.30
34279;DHT22;20538;51.528;9.942;2023-06-05T13:20:08;24.30;70.20
34279;DHT22;20538;51.528;9.942;2023-06-05T13:22:42;24.00;69.80
34279;DHT22;20538;51.528;9.942;2023-06-05T13:25:08;24.10;71.80
34279;DHT22;20538;51.528;9.942;2023-06-05T13:27:35;24.50;71.80
34279;DHT22;20538;51.528;9.942;2023-06-05T13:30:01;24.30;69.30
34279;DHT22;20538;51.528;9.942;2023-06-05T13:32:32;24.30;68.60
34279;DHT22;20538;51.528;9.942;2023-06-05T13:34:57;23.80;70.30
34279;DHT22;20538;51.528;9.942;2023-06-05T13:37:23;24.10;72.70
34279;DHT22;20538;51.528;9.942;2023-06-05T13:39:49;24.40;72.90
34279;DHT22;20538;51.528;9.942;2023-06-05T13:42:15;24.70;73.90
34279;DHT22;20538;51.528;9.942;2023-06-05T13:44:41;24.70;71.60
34279;DHT22;20538;51.528;9.942;2023-06-05T13:47:06;24.90;70.10
34279;DHT22;20538;51.528;9.942;2023-06-05T13:49:34;25.00;70.80
34279;DHT22;20538;51.528;9.942;2023-06-05T13:52:00;24.60;68.60
34279;DHT22;20538;51.528;9.942;2023-06-05T13:54:26;24.40;69.00
34279;DHT22;20538;51.528;9.942;2023-06-05T13:56:52;24.40;68.00
34279;DHT22;20538;51.528;9.942;2023-06-05T13:59:18;24.40;68.80
34279;DHT22;20538;51.528;9.942;2023-06-05T14:01:44;24.40;68.90
34279;DHT22;20538;51.528;9.942;2023-06-05T14:04:11;24.60;70.80
34279;DHT22;20538;51.528;9.942;2023-06-05T14:06:37;24.60;71.50
34279;DHT22;20538;51.528;9.942;2023-06-05T14:09:05;24.70;71.40
34279;DHT22;20538;51.528;9.942;2023-06-05T14:11:31;24.70;69.50
34279;DHT22;20538;51.528;9.942;2023-06-05T14:13:57;24.70;70.40
34279;DHT22;20538;51.528;9.942;2023-06-05T14:16:24;25.00;70.60
34279;DHT22;20538;51.528;9.942;2023-06-05T14:18:50;25.30;69.70
34279;DHT22;20538;51.528;9.942;2023-06-05T14:21:15;25.40;70.10
34279;DHT22;20538;51.528;9.942;2023-06-05T14:23:41;24.90;68.20
34279;DHT22;20538;51.528;9.942;2023-06-05T14:26:08;24.70;68.00
34279;DHT22;20538;51.528;9.942;2023-06-05T14:28:36;24.90;70.00
34279;DHT22;20538;51.528;9.942;2023-06-05T14:31:01;24.80;67.20
34279;DHT22;20538;51.528;9.942;2023-06-05T14:33:27;24.70;68.80
34279;DHT22;20538;51.528;9.942;2023-06-05T14:35:56;24.70;67.60
34279;DHT22;20538;51.528;9.942;2023-06-05T14:38:24;24.80;67.20
34279;DHT22;20538;51.528;9.942;2023-06-05T14:40:49;24.80;67.60
34279;DHT22;20538;51.528;9.942;2023-06-05T14:43:16;25.10;69.50
34279;DHT22;20538;51.528;9.942;2023-06-05T14:45:42;25.00;67.50
34279;DHT22;20538;51.528;9.942;2023-06-05T14:48:08;24.80;66.70
34279;DHT22;20538;51.528;9.942;2023-06-05T14:50:36;24.80;67.30
34279;DHT22;20538;51.528;9.942;2023-06-05T14:53:01;24.70;68.00
34279;DHT22;20538;51.528;9.942;2023-06-05T14:55:27;24.90;68.80
34279;DHT22;20538;51.528;9.942;2023-06-05T14:57:56;24.70;66.80
34279;DHT22;20538;51.528;9.942;2023-06-05T15:00:22;25.00;68.40
34279;DHT22;20538;51.528;9.942;2023-06-05T15:02:47;25.50;68.40
34279;DHT22;20538;51.528;9.942;2023-06-05T15:05:13;25.70;67.70
34279;DHT22;20538;51.528;9.942;2023-06-05T15:07:40;25.70;68.00
34279;DHT22;20538;51.528;9.942;2023-06-05T15:10:07;25.40;67.90
34279;DHT22;20538;51.528;9.942;2023-06-05T15:12:37;25.10;69.80
34279;DHT22;20538;51.528;9.942;2023-06-05T15:15:07;25.00;68.10
34279;DHT22;20538;51.528;9.942;2023-06-05T15:17:36;24.90;66.30
34279;DHT22;20538;51.528;9.942;2023-06-05T15:20:02;25.00;68.30
34279;DHT22;20538;51.528;9.942;2023-06-05T15:22:31;25.00;69.60
34279;DHT22;20538;51.528;9.942;2023-06-05T15:24:57;24.60;67.10
34279;DHT22;20538;51.528;9.942;2023-06-05T15:27:22;24.70;70.20
34279;DHT22;20538;51.528;9.942;2023-06-05T15:29:48;24.50;67.70
34279;DHT22;20538;51.528;9.942;2023-06-05T15:32:14;24.40;68.50
34279;DHT22;20538;51.528;9.942;2023-06-05T15:34:40;24.40;68.50
34279;DHT22;20538;51.528;9.942;2023-06-05T15:37:09;24.40;70.10
34279;DHT22;20538;51.528;9.942;2023-06-05T15:39:36;24.50;69.00
34279;DHT22;20538;51.528;9.942;2023-06-05T15:42:02;24.50;69.00
34279;DHT22;20538;51.528;9.942;2023-06-05T15:44:28;24.30;68.10
34279;DHT22;20538;51.528;9.942;2023-06-05T15:46:54;24.10;68.80
34279;DHT22;20538;51.528;9.942;2023-06-05T15:49:22;24.20;69.40
34279;DHT22;20538;51.528;9.942;2023-06-05T15:51:48;24.10;69.50
34279;DHT22;20538;51.528;9.942;2023-06-05T15:54:13;24.10;68.60
34279;DHT22;20538;51.528;9.942;2023-06-05T15:56:40;24.10;68.80
34279;DHT22;20538;51.528;9.942;2023-06-05T15:59:05;24.10;68.60
34279;DHT22;20538;51.528;9.942;2023-06-05T16:01:31;24.10;68.40
34279;DHT22;20538;51.528;9.942;2023-06-05T16:03:57;24.30;70.90
34279;DHT22;20538;51.528;9.942;2023-06-05T16:06:23;25.00;70.70
34279;DHT22;20538;51.528;9.942;2023-06-05T16:08:49;25.80;70.50
34279;DHT22;20538;51.528;9.942;2023-06-05T16:11:15;26.00;68.40
34279;DHT22;20538;51.528;9.942;2023-06-05T16:13:41;25.70;67.90
34279;DHT22;20538;51.528;9.942;2023-06-05T16:16:06;28.50;65.60
34279;DHT22;20538;51.528;9.942;2023-06-05T16:18:32;31.00;64.10